Time;durP1;ratioP1;P1;durP2;ratioP2;P2;SDS_P1;SDS_P2;PMS_P1;PMS_P2;Temp;Humidity;BMP_temperature;BMP_pressure;BME280_temperature;BME280_humidity;BME280_pressure;Samples;Min_cycle;Max_cycle;Signal;HPM_P1;HPM_P2
2022/05/21 00:01:19;;;;;;;;;9.60;9.60;;;;;;;;5021032;28;8739;-64
2022/05/21 00:03:46;;;;;;;;;8.80;7.80;;;;;;;;5009867;28;8747;-65
2022/05/21 00:06:13;;;;;;;;;11.20;11.00;;;;;;;;5020278;28;8739;-64
2022/05/21 00:08:40;;;;;;;;;5.80;5.80;;;;;;;;5020228;28;8742;-65
2022/05/21 00:11:07;;;;;;;;;9.80;9.20;;;;;;;;5023565;28;8815;-64
2022/05/21 00:13:34;;;;;;;;;6.20;5.80;;;;;;;;5065966;28;8764;-64
2022/05/21 00:16:00;;;;;;;;;8.60;7.60;;;;;;;;5040391;28;8765;-64
2022/05/21 00:18:27;;;;;;;;;8.00;8.00;;;;;;;;5039793;28;8780;-64
2022/05/21 00:20:54;;;;;;;;;8.20;7.80;;;;;;;;5039843;28;8760;-64
2022/05/21 00:23:21;;;;;;;;;4.80;3.80;;;;;;;;5039823;28;8776;-64
2022/05/21 00:25:48;;;;;;;;;7.80;7.80;;;;;;;;5035524;28;8774;-64
2022/05/21 00:28:15;;;;;;;;;8.40;7.80;;;;;;;;5021100;28;8866;-65
2022/05/21 00:30:42;;;;;;;;;5.80;5.80;;;;;;;;5018433;28;8771;-64
2022/05/21 00:33:08;;;;;;;;;5.00;5.00;;;;;;;;5019952;28;8808;-64
2022/05/21 00:35:35;;;;;;;;;5.60;5.60;;;;;;;;5019706;28;9443;-64
2022/05/21 00:38:02;;;;;;;;;8.00;5.60;;;;;;;;5019376;28;8782;-64
2022/05/21 00:40:28;;;;;;;;;7.00;5.40;;;;;;;;5021277;28;8778;-64
2022/05/21 00:42:55;;;;;;;;;4.40;4.40;;;;;;;;5039048;28;8836;-64
2022/05/21 00:45:24;;;;;;;;;7.20;7.20;;;;;;;;5039397;28;8764;-64
2022/05/21 00:47:51;;;;;;;;;2.80;2.00;;;;;;;;5039577;28;8776;-64
2022/05/21 00:50:18;;;;;;;;;7.20;6.00;;;;;;;;5039287;28;8770;-64
2022/05/21 00:52:45;;;;;;;;;7.80;7.80;;;;;;;;5021978;28;9519;-65
2022/05/21 00:55:16;;;;;;;;;6.40;6.40;;;;;;;;5039933;28;8739;-64
2022/05/21 00:59:47;;;;;;;;;10.60;7.40;;;;;;;;5019482;28;8778;-64
2022/05/21 01:00:41;;;;;;;;;8.60;7.00;;;;;;;;5018038;28;8758;-65
2022/05/21 01:03:08;;;;;;;;;8.00;8.00;;;;;;;;5019576;28;8783;-64
2022/05/21 01:05:36;;;;;;;;;12.60;7.00;;;;;;;;5017004;28;8782;-64
2022/05/21 01:08:03;;;;;;;;;6.60;6.60;;;;;;;;5001868;28;8767;-64
2022/05/21 01:10:33;;;;;;;;;7.00;7.00;;;;;;;;5020951;28;8744;-63
2022/05/21 01:13:00;;;;;;;;;6.00;5.80;;;;;;;;5038381;28;8725;-65
2022/05/21 01:15:35;;;;;;;;;7.00;5.00;;;;;;;;5038624;28;8760;-64
2022/05/21 01:18:05;;;;;;;;;9.00;8.20;;;;;;;;5037178;28;8764;-64
2022/05/21 01:20:36;;;;;;;;;6.00;5.40;;;;;;;;5038573;28;9966;-64
2022/05/21 01:23:03;;;;;;;;;7.60;6.60;;;;;;;;5038746;28;8780;-64
2022/05/21 01:25:31;;;;;;;;;8.80;6.80;;;;;;;;5036375;28;8771;-64
2022/05/21 01:27:58;;;;;;;;;6.00;5.20;;;;;;;;5019798;28;8828;-64
2022/05/21 01:30:28;;;;;;;;;8.80;6.80;;;;;;;;5018735;28;8779;-64
2022/05/21 01:32:54;;;;;;;;;8.80;5.40;;;;;;;;5001443;28;8763;-64
2022/05/21 01:35:21;;;;;;;;;5.00;5.00;;;;;;;;5001101;28;8767;-63
2022/05/21 01:37:48;;;;;;;;;4.60;4.60;;;;;;;;5018674;28;8795;-65
2022/05/21 01:40:17;;;;;;;;;7.40;7.20;;;;;;;;5019155;28;8747;-64
2022/05/21 01:44:37;;;;;;;;;9.60;6.40;;;;;;;;5018800;28;8763;-64
2022/05/21 01:45:30;;;;;;;;;4.80;4.00;;;;;;;;5018440;28;9430;-64
2022/05/21 01:47:57;;;;;;;;;6.80;5.60;;;;;;;;5018915;28;8832;-64
2022/05/21 01:50:24;;;;;;;;;6.40;5.20;;;;;;;;5017138;28;8842;-64
2022/05/21 01:52:50;;;;;;;;;5.40;5.00;;;;;;;;5018563;28;8883;-64
2022/05/21 01:55:17;;;;;;;;;5.00;5.00;;;;;;;;5019112;28;8724;-62
2022/05/21 01:57:44;;;;;;;;;8.00;7.00;;;;;;;;5038028;28;8756;-64
2022/05/21 02:00:11;;;;;;;;;1.60;1.60;;;;;;;;5038037;28;8817;-64
2022/05/21 02:02:37;;;;;;;;;6.00;4.60;;;;;;;;5036576;28;8788;-64
2022/05/21 02:05:04;;;;;;;;;4.40;4.00;;;;;;;;5054290;28;8760;-65
2022/05/21 02:07:32;;;;;;;;;3.20;3.20;;;;;;;;5039370;28;8759;-64
2022/05/21 02:09:59;;;;;;;;;4.00;3.00;;;;;;;;5038555;28;8759;-65
2022/05/21 02:12:27;;;;;;;;;3.40;2.80;;;;;;;;5020020;28;9443;-64
2022/05/21 02:14:55;;;;;;;;;3.40;3.40;;;;;;;;5017932;28;8743;-64
2022/05/21 02:17:22;;;;;;;;;3.40;3.20;;;;;;;;5016911;28;8833;-63
2022/05/21 02:19:48;;;;;;;;;4.00;3.80;;;;;;;;5018042;28;8766;-64
2022/05/21 02:22:16;;;;;;;;;5.00;5.00;;;;;;;;5017135;28;8739;-64
2022/05/21 02:24:42;;;;;;;;;12.00;10.20;;;;;;;;5018059;28;8831;-64
2022/05/21 02:27:13;;;;;;;;;13.40;12.60;;;;;;;;5033128;28;8760;-64
2022/05/21 02:29:40;;;;;;;;;19.20;18.80;;;;;;;;5037657;28;8886;-64
2022/05/21 02:32:07;;;;;;;;;25.40;21.20;;;;;;;;5037361;28;8745;-64
2022/05/21 02:34:34;;;;;;;;;24.00;24.00;;;;;;;;5037486;28;8732;-64
2022/05/21 02:39:45;;;;;;;;;3.80;3.80;;;;;;;;5037573;28;8741;-64
2022/05/21 02:44:57;;;;;;;;;7.80;6.60;;;;;;;;5017205;28;8751;-64
2022/05/21 02:47:25;;;;;;;;;6.60;4.80;;;;;;;;5017432;28;8778;-64
2022/05/21 02:49:51;;;;;;;;;8.00;8.00;;;;;;;;5016221;28;8771;-64
2022/05/21 02:52:18;;;;;;;;;7.00;7.00;;;;;;;;5017709;28;8740;-64
2022/05/21 02:54:45;;;;;;;;;7.00;7.00;;;;;;;;5016297;28;8832;-64
2022/05/21 02:57:12;;;;;;;;;3.20;3.00;;;;;;;;5032852;28;8775;-64
2022/05/21 02:59:38;;;;;;;;;4.20;3.00;;;;;;;;5036995;28;8756;-64
2022/05/21 03:02:05;;;;;;;;;2.80;2.80;;;;;;;;5037085;28;9418;-64
2022/05/21 03:04:32;;;;;;;;;3.80;3.20;;;;;;;;5042050;28;8768;-64
2022/05/21 03:06:59;;;;;;;;;4.00;4.00;;;;;;;;5044401;28;8748;-64
2022/05/21 03:12:11;;;;;;;;;5.00;4.00;;;;;;;;5021084;28;8746;-64
2022/05/21 03:14:37;;;;;;;;;2.20;2.20;;;;;;;;5016959;28;8789;-64
2022/05/21 03:17:04;;;;;;;;;3.20;1.40;;;;;;;;5016978;28;8766;-64
2022/05/21 03:19:32;;;;;;;;;4.40;2.40;;;;;;;;5016779;28;8755;-64
2022/05/21 03:21:59;;;;;;;;;1.20;1.20;;;;;;;;5017708;28;8735;-64
2022/05/21 03:24:26;;;;;;;;;1.00;1.00;;;;;;;;5016504;28;8727;-64
2022/05/21 03:26:52;;;;;;;;;0.40;0.40;;;;;;;;5028872;28;9098;-64
2022/05/21 03:29:20;;;;;;;;;2.00;2.00;;;;;;;;5035081;28;8764;-62
2022/05/21 03:31:46;;;;;;;;;1.00;1.00;;;;;;;;5036546;28;8776;-64
2022/05/21 03:34:13;;;;;;;;;2.00;2.00;;;;;;;;5036247;28;8756;-64
2022/05/21 03:36:40;;;;;;;;;1.00;1.00;;;;;;;;5036073;28;8754;-65
2022/05/21 03:39:07;;;;;;;;;2.40;0.40;;;;;;;;5036493;28;8756;-64
2022/05/21 03:41:36;;;;;;;;;1.80;1.00;;;;;;;;5025805;28;8817;-64
2022/05/21 03:44:02;;;;;;;;;1.60;1.60;;;;;;;;5016962;28;8739;-64
2022/05/21 03:46:29;;;;;;;;;3.60;2.20;;;;;;;;5016690;28;8759;-63
2022/05/21 03:48:56;;;;;;;;;3.20;1.80;;;;;;;;5016350;28;8767;-64
2022/05/21 03:51:22;;;;;;;;;2.00;2.00;;;;;;;;5015183;28;9436;-64
2022/05/21 03:53:49;;;;;;;;;1.40;1.40;;;;;;;;5016657;28;8787;-64
2022/05/21 03:56:16;;;;;;;;;1.40;1.40;;;;;;;;5024863;28;8749;-64
2022/05/21 03:58:43;;;;;;;;;2.00;1.00;;;;;;;;5036492;28;8867;-64
2022/05/21 04:01:09;;;;;;;;;1.80;1.60;;;;;;;;5037042;28;8790;-59
2022/05/21 04:03:36;;;;;;;;;3.20;2.00;;;;;;;;5036550;28;8772;-64
2022/05/21 04:06:03;;;;;;;;;1.20;1.00;;;;;;;;5036494;28;8772;-64
2022/05/21 04:08:29;;;;;;;;;0.60;0.20;;;;;;;;5035976;28;9413;-64
2022/05/21 04:10:56;;;;;;;;;2.60;1.00;;;;;;;;5030680;28;8790;-64
2022/05/21 04:13:23;;;;;;;;;1.60;1.60;;;;;;;;5016879;28;8743;-64
2022/05/21 04:15:49;;;;;;;;;2.40;1.80;;;;;;;;5016882;28;8758;-64
2022/05/21 04:18:17;;;;;;;;;3.00;2.00;;;;;;;;5016490;28;8779;-64
2022/05/21 04:20:44;;;;;;;;;3.00;2.00;;;;;;;;5016904;28;8850;-64
2022/05/21 04:23:11;;;;;;;;;2.60;1.60;;;;;;;;4998799;28;8774;-64
2022/05/21 04:25:38;;;;;;;;;2.40;2.40;;;;;;;;5019175;28;8871;-64
2022/05/21 04:28:04;;;;;;;;;2.20;2.20;;;;;;;;5036762;28;8741;-64
2022/05/21 04:30:32;;;;;;;;;2.80;1.40;;;;;;;;5034890;28;8840;-64
2022/05/21 04:32:59;;;;;;;;;2.80;1.40;;;;;;;;5036357;28;8760;-64
2022/05/21 04:36:17;;;;;;;;;0.80;0.40;;;;;;;;5036135;28;8776;-64
2022/05/21 04:38:12;;;;;;;;;1.20;1.20;;;;;;;;5035813;28;9901;-65
2022/05/21 04:40:39;;;;;;;;;2.40;0.00;;;;;;;;5034046;28;8771;-64
2022/05/21 04:43:06;;;;;;;;;2.00;2.00;;;;;;;;5020439;28;8796;-64
2022/05/21 04:45:33;;;;;;;;;0.80;0.20;;;;;;;;5019652;28;8735;-64
2022/05/21 04:48:02;;;;;;;;;0.40;0.40;;;;;;;;5019990;28;8782;-64
2022/05/21 04:50:29;;;;;;;;;1.40;1.40;;;;;;;;5019622;28;8774;-64
2022/05/21 04:52:56;;;;;;;;;2.80;1.00;;;;;;;;5019777;28;8774;-64
2022/05/21 04:55:23;;;;;;;;;2.00;0.80;;;;;;;;5020644;28;8739;-64
2022/05/21 04:57:49;;;;;;;;;1.60;0.40;;;;;;;;5039449;28;8774;-65
2022/05/21 05:00:16;;;;;;;;;1.80;1.80;;;;;;;;5037719;28;8779;-64
2022/05/21 05:02:43;;;;;;;;;4.00;2.20;;;;;;;;5039371;28;8769;-64
2022/05/21 05:05:10;;;;;;;;;0.40;0.40;;;;;;;;5039139;28;8764;-64
2022/05/21 05:07:38;;;;;;;;;1.60;1.60;;;;;;;;5037719;28;8725;-64
2022/05/21 05:10:05;;;;;;;;;2.00;2.00;;;;;;;;5051067;28;8777;-64
2022/05/21 05:12:32;;;;;;;;;2.80;2.00;;;;;;;;5030418;28;8751;-64
2022/05/21 05:14:59;;;;;;;;;1.60;1.60;;;;;;;;5019337;28;8871;-64
2022/05/21 05:17:26;;;;;;;;;4.00;1.20;;;;;;;;5018879;28;8779;-64
2022/05/21 05:19:54;;;;;;;;;1.40;1.20;;;;;;;;5019059;28;8767;-64
2022/05/21 05:22:24;;;;;;;;;1.80;1.80;;;;;;;;5019446;28;8739;-64
2022/05/21 05:24:50;;;;;;;;;1.60;1.60;;;;;;;;5019330;28;8836;-64
2022/05/21 05:27:17;;;;;;;;;1.00;1.00;;;;;;;;5035512;28;8721;-63
2022/05/21 05:29:44;;;;;;;;;1.20;0.60;;;;;;;;5037697;28;8756;-64
2022/05/21 05:32:10;;;;;;;;;1.40;1.00;;;;;;;;5038776;28;9423;-64
2022/05/21 05:34:37;;;;;;;;;1.40;1.00;;;;;;;;5038648;28;8771;-64
2022/05/21 05:37:04;;;;;;;;;0.80;0.80;;;;;;;;5038852;28;8875;-64
2022/05/21 05:39:31;;;;;;;;;0.00;0.00;;;;;;;;5038388;28;8851;-64
2022/05/21 05:41:58;;;;;;;;;2.00;0.20;;;;;;;;5023378;28;8735;-64
2022/05/21 05:44:24;;;;;;;;;2.60;1.00;;;;;;;;5018594;28;8731;-64
2022/05/21 05:46:51;;;;;;;;;0.20;0.00;;;;;;;;5018763;28;9416;-64
2022/05/21 05:49:18;;;;;;;;;0.00;0.00;;;;;;;;5019165;28;8719;-63
2022/05/21 05:51:44;;;;;;;;;0.00;0.00;;;;;;;;5018647;28;8766;-64
2022/05/21 05:54:11;;;;;;;;;1.80;1.00;;;;;;;;5018444;28;8723;-64
2022/05/21 05:56:38;;;;;;;;;0.20;0.20;;;;;;;;5028054;28;8816;-64
2022/05/21 06:02:57;;;;;;;;;2.20;2.20;;;;;;;;5037895;28;8772;-64
2022/05/21 06:04:36;;;;;;;;;2.00;2.00;;;;;;;;5037726;28;8839;-64
2022/05/21 06:07:03;;;;;;;;;1.40;1.40;;;;;;;;5038535;28;8769;-64
2022/05/21 06:09:29;;;;;;;;;1.20;1.20;;;;;;;;5037425;28;8756;-64
2022/05/21 06:11:56;;;;;;;;;0.00;0.00;;;;;;;;5023217;28;8755;-64
2022/05/21 06:14:23;;;;;;;;;1.60;0.60;;;;;;;;5017815;28;9261;-64
2022/05/21 06:16:49;;;;;;;;;4.00;1.00;;;;;;;;5017956;28;8794;-64
2022/05/21 06:19:16;;;;;;;;;1.00;1.00;;;;;;;;5018537;28;8739;-64
2022/05/21 06:21:43;;;;;;;;;2.60;2.60;;;;;;;;5017982;28;8728;-64
2022/05/21 06:24:09;;;;;;;;;1.00;1.00;;;;;;;;5017950;28;8767;-64
2022/05/21 06:26:36;;;;;;;;;1.00;1.00;;;;;;;;5028467;28;8752;-64
2022/05/21 06:29:03;;;;;;;;;2.40;1.00;;;;;;;;5037781;28;8764;-64
2022/05/21 06:31:30;;;;;;;;;3.40;1.00;;;;;;;;5037291;28;8760;-64
2022/05/21 06:33:56;;;;;;;;;1.00;1.00;;;;;;;;5038313;28;8733;-64
2022/05/21 06:36:25;;;;;;;;;2.00;0.40;;;;;;;;5037099;28;8780;-64
2022/05/21 06:38:52;;;;;;;;;2.00;0.00;;;;;;;;5036425;28;8803;-64
2022/05/21 06:41:19;;;;;;;;;3.00;1.20;;;;;;;;5029028;28;8845;-62
2022/05/21 06:43:45;;;;;;;;;3.00;2.00;;;;;;;;5017602;28;8807;-64
2022/05/21 06:46:12;;;;;;;;;1.60;1.60;;;;;;;;5016748;28;8759;-64
2022/05/21 06:48:39;;;;;;;;;3.00;1.80;;;;;;;;5017444;28;8798;-64
2022/05/21 06:51:06;;;;;;;;;1.00;1.00;;;;;;;;5016521;28;8751;-64
2022/05/21 06:53:33;;;;;;;;;0.00;0.00;;;;;;;;5017074;28;9129;-64
2022/05/21 06:56:00;;;;;;;;;0.00;0.00;;;;;;;;5023233;28;8756;-64
2022/05/21 06:58:27;;;;;;;;;2.40;0.00;;;;;;;;5036692;28;8749;-63
2022/05/21 07:00:53;;;;;;;;;2.20;0.00;;;;;;;;5037349;28;8899;-64
2022/05/21 07:03:20;;;;;;;;;0.00;0.00;;;;;;;;5036511;28;8728;-64
2022/05/21 07:08:32;;;;;;;;;0.00;0.00;;;;;;;;5036623;28;8752;-64
2022/05/21 07:10:59;;;;;;;;;0.00;0.00;;;;;;;;5031081;28;8833;-65
2022/05/21 07:13:28;;;;;;;;;0.00;0.00;;;;;;;;5016982;28;8739;-64
2022/05/21 07:15:54;;;;;;;;;0.00;0.00;;;;;;;;5000451;28;8735;-64
2022/05/21 07:18:22;;;;;;;;;1.00;0.00;;;;;;;;5016854;28;8790;-64
2022/05/21 07:20:48;;;;;;;;;0.00;0.00;;;;;;;;5017348;28;8790;-64
2022/05/21 07:23:15;;;;;;;;;0.00;0.00;;;;;;;;5016976;28;8952;-65
2022/05/21 07:25:42;;;;;;;;;0.00;0.00;;;;;;;;5011765;28;8777;-64
2022/05/21 07:28:09;;;;;;;;;0.00;0.00;;;;;;;;5037270;28;8772;-64
2022/05/21 07:30:38;;;;;;;;;0.00;0.00;;;;;;;;5036544;28;8767;-64
2022/05/21 07:33:05;;;;;;;;;1.00;0.00;;;;;;;;5036845;28;8756;-64
2022/05/21 07:35:34;;;;;;;;;0.00;0.00;;;;;;;;5036505;28;8775;-64
2022/05/21 07:38:01;;;;;;;;;0.00;0.00;;;;;;;;5035657;28;8871;-64
2022/05/21 07:40:27;;;;;;;;;0.00;0.00;;;;;;;;5034815;28;8745;-64
2022/05/21 07:42:54;;;;;;;;;0.00;0.00;;;;;;;;5017483;28;8757;-64
2022/05/21 07:45:21;;;;;;;;;0.00;0.00;;;;;;;;5016622;28;8759;-63
2022/05/21 07:47:49;;;;;;;;;0.00;0.00;;;;;;;;5016981;28;9388;-64
2022/05/21 07:50:16;;;;;;;;;1.00;0.00;;;;;;;;5015742;28;8840;-64
2022/05/21 07:52:43;;;;;;;;;0.00;0.00;;;;;;;;5016710;28;8743;-64
2022/05/21 07:55:09;;;;;;;;;0.00;0.00;;;;;;;;5017405;28;8881;-64
2022/05/21 07:57:36;;;;;;;;;0.00;0.00;;;;;;;;5035335;28;8753;-64
2022/05/21 08:00:06;;;;;;;;;0.00;0.00;;;;;;;;5036593;28;8748;-64
2022/05/21 08:02:33;;;;;;;;;0.00;0.00;;;;;;;;5036438;28;8753;-64
2022/05/21 08:05:00;;;;;;;;;0.00;0.00;;;;;;;;5036686;28;8756;-64
2022/05/21 08:07:27;;;;;;;;;0.00;0.00;;;;;;;;5036289;28;8756;-64
2022/05/21 08:09:53;;;;;;;;;0.00;0.00;;;;;;;;5036856;28;8769;-65
2022/05/21 08:12:20;;;;;;;;;0.00;0.00;;;;;;;;5019187;28;8739;-64
2022/05/21 08:14:47;;;;;;;;;0.00;0.00;;;;;;;;5016989;28;8820;-64
2022/05/21 08:17:14;;;;;;;;;0.00;0.00;;;;;;;;5020254;28;8771;-65
2022/05/21 08:19:41;;;;;;;;;0.00;0.00;;;;;;;;5020396;28;8754;-65
2022/05/21 08:27:39;;;;;;;;;0.00;0.00;;;;;;;;5039126;28;8741;-65
2022/05/21 08:30:06;;;;;;;;;0.00;0.00;;;;;;;;5039954;28;8751;-64
2022/05/21 08:32:33;;;;;;;;;0.00;0.00;;;;;;;;5039913;28;8749;-64
2022/05/21 08:35:03;;;;;;;;;0.00;0.00;;;;;;;;5039881;28;8763;-65
2022/05/21 08:37:30;;;;;;;;;0.00;0.00;;;;;;;;5039163;28;8792;-64
2022/05/21 08:39:57;;;;;;;;;0.00;0.00;;;;;;;;5040593;28;8732;-65
2022/05/21 08:42:29;;;;;;;;;0.00;0.00;;;;;;;;5022362;28;8743;-64
2022/05/21 08:44:59;;;;;;;;;0.00;0.00;;;;;;;;5019745;28;8755;-65
2022/05/21 08:47:36;;;;;;;;;0.00;0.00;;;;;;;;5018147;28;8735;-64
2022/05/21 08:50:05;;;;;;;;;0.00;0.00;;;;;;;;5019810;28;8758;-65
2022/05/21 08:52:42;;;;;;;;;0.00;0.00;;;;;;;;5019453;28;8747;-64
2022/05/21 08:55:10;;;;;;;;;0.80;0.60;;;;;;;;5020411;28;8905;-65
2022/05/21 08:57:48;;;;;;;;;1.00;1.00;;;;;;;;5038068;28;8784;-64
2022/05/21 09:00:15;;;;;;;;;1.00;1.00;;;;;;;;5038116;28;8769;-65
2022/05/21 09:02:41;;;;;;;;;0.00;0.00;;;;;;;;5039145;28;8771;-65
2022/05/21 09:05:10;;;;;;;;;0.00;0.00;;;;;;;;5038276;28;8772;-64
2022/05/21 09:07:42;;;;;;;;;0.00;0.00;;;;;;;;5037689;28;9452;-64
2022/05/21 09:10:23;;;;;;;;;0.60;0.60;;;;;;;;5038389;28;8780;-65
2022/05/21 09:13:02;;;;;;;;;0.00;0.00;;;;;;;;5018070;28;8748;-65
2022/05/21 09:18:16;;;;;;;;;0.00;0.00;;;;;;;;5017932;28;10129;-64
2022/05/21 09:20:50;;;;;;;;;2.80;1.60;;;;;;;;5019504;28;8775;-65
2022/05/21 09:23:16;;;;;;;;;3.20;1.00;;;;;;;;5017982;28;8877;-64
2022/05/21 09:25:43;;;;;;;;;3.00;2.80;;;;;;;;5020820;28;9418;-65
2022/05/21 09:28:11;;;;;;;;;1.20;1.20;;;;;;;;5039205;28;8761;-65
2022/05/21 09:30:40;;;;;;;;;2.20;2.20;;;;;;;;5038573;28;8752;-64
2022/05/21 09:33:26;;;;;;;;;3.00;1.20;;;;;;;;5038710;28;9417;-65
2022/05/21 09:35:57;;;;;;;;;4.00;4.00;;;;;;;;5037189;28;8772;-64
2022/05/21 09:38:26;;;;;;;;;3.40;2.20;;;;;;;;5038395;28;8834;-64
2022/05/21 09:41:13;;;;;;;;;1.40;1.40;;;;;;;;5032463;28;9010;-64
2022/05/21 09:46:32;;;;;;;;;9.60;9.60;;;;;;;;5018527;28;8727;-64
2022/05/21 09:49:18;;;;;;;;;12.20;11.20;;;;;;;;5017786;28;8783;-65
2022/05/21 09:51:52;;;;;;;;;7.80;7.80;;;;;;;;5018740;28;8747;-64
2022/05/21 09:54:23;;;;;;;;;9.00;7.40;;;;;;;;5018515;28;8886;-64
2022/05/21 09:56:52;;;;;;;;;5.60;5.60;;;;;;;;5013090;28;8865;-64
2022/05/21 09:59:19;;;;;;;;;5.80;5.80;;;;;;;;5036862;28;8752;-64
2022/05/21 10:01:47;;;;;;;;;5.00;5.00;;;;;;;;5038127;28;8775;-64
2022/05/21 10:04:24;;;;;;;;;4.40;4.40;;;;;;;;5038717;28;8749;-64
2022/05/21 10:06:52;;;;;;;;;5.60;5.60;;;;;;;;5038154;28;8741;-65
2022/05/21 10:12:11;;;;;;;;;7.00;7.00;;;;;;;;5022766;28;9451;-65
2022/05/21 10:14:42;;;;;;;;;8.80;7.80;;;;;;;;5016490;28;8794;-64
2022/05/21 10:17:13;;;;;;;;;6.00;6.00;;;;;;;;5016498;28;8806;-65
2022/05/21 10:19:46;;;;;;;;;5.40;5.40;;;;;;;;5018107;28;8759;-65
2022/05/21 10:22:23;;;;;;;;;4.00;4.00;;;;;;;;5017976;28;8782;-65
2022/05/21 10:24:56;;;;;;;;;5.60;4.40;;;;;;;;5007427;28;8867;-65
2022/05/21 10:27:24;;;;;;;;;6.80;6.80;;;;;;;;5034874;28;8772;-65
2022/05/21 10:30:03;;;;;;;;;6.60;6.00;;;;;;;;5037769;28;8736;-65
2022/05/21 10:32:48;;;;;;;;;9.00;8.00;;;;;;;;5037644;28;8804;-65
2022/05/21 10:35:18;;;;;;;;;8.20;8.00;;;;;;;;5038148;28;8756;-65
2022/05/21 10:37:57;;;;;;;;;6.80;6.80;;;;;;;;5036392;28;9493;-65
2022/05/21 10:40:27;;;;;;;;;7.20;7.20;;;;;;;;5037401;28;8859;-64
2022/05/21 10:42:57;;;;;;;;;6.00;6.00;;;;;;;;5016864;28;8774;-65
2022/05/21 10:45:31;;;;;;;;;8.20;5.00;;;;;;;;5017615;28;8794;-64
2022/05/21 10:48:08;;;;;;;;;10.80;9.80;;;;;;;;5016443;28;8972;-65
2022/05/21 10:50:54;;;;;;;;;7.20;7.20;;;;;;;;5016517;28;8771;-64
2022/05/21 10:53:21;;;;;;;;;8.20;7.00;;;;;;;;5017573;28;8784;-64
2022/05/21 10:55:52;;;;;;;;;8.60;8.00;;;;;;;;5021622;28;8752;-64
2022/05/21 10:58:25;;;;;;;;;8.00;7.00;;;;;;;;5036079;28;8788;-63
2022/05/21 11:00:52;;;;;;;;;7.60;7.60;;;;;;;;5037233;28;8773;-64
2022/05/21 11:03:19;;;;;;;;;9.40;7.40;;;;;;;;5036825;28;8885;-64
2022/05/21 11:05:48;;;;;;;;;8.80;7.60;;;;;;;;5037217;28;8871;-64
2022/05/21 11:08:18;;;;;;;;;6.80;6.80;;;;;;;;5037033;28;8898;-64
2022/05/21 11:10:52;;;;;;;;;5.60;5.60;;;;;;;;5028807;28;8762;-64
2022/05/21 11:13:28;;;;;;;;;8.00;8.00;;;;;;;;5041622;28;8829;-63
2022/05/21 11:16:14;;;;;;;;;8.20;7.20;;;;;;;;5000114;28;8882;-65
2022/05/21 11:18:44;;;;;;;;;4.80;4.80;;;;;;;;4980296;28;8797;-65
2022/05/21 11:21:14;;;;;;;;;6.80;6.00;;;;;;;;4997044;28;8848;-64
2022/05/21 11:23:47;;;;;;;;;5.40;4.40;;;;;;;;4997132;28;8820;-64
2022/05/21 11:26:25;;;;;;;;;5.00;4.00;;;;;;;;5005173;28;8870;-64
2022/05/21 11:28:54;;;;;;;;;4.80;3.00;;;;;;;;5017391;28;8759;-64
2022/05/21 11:39:40;;;;;;;;;5.00;5.00;;;;;;;;5002480;28;8755;-65
2022/05/21 11:42:07;;;;;;;;;6.00;6.00;;;;;;;;5002143;28;8792;-64
2022/05/21 11:44:56;;;;;;;;;7.20;7.20;;;;;;;;4996847;28;8776;-64
2022/05/21 11:47:22;;;;;;;;;6.00;6.00;;;;;;;;4966371;28;8765;-64
2022/05/21 11:49:53;;;;;;;;;8.00;8.00;;;;;;;;4998637;28;8828;-64
2022/05/21 11:52:29;;;;;;;;;5.00;5.00;;;;;;;;5001381;28;8860;-64
2022/05/21 11:54:56;;;;;;;;;5.20;5.20;;;;;;;;5016678;28;8753;-64
2022/05/21 11:57:31;;;;;;;;;7.00;5.60;;;;;;;;5017391;28;8881;-64
2022/05/21 11:59:57;;;;;;;;;5.00;5.00;;;;;;;;5021115;28;8858;-64
2022/05/21 12:02:25;;;;;;;;;5.80;5.60;;;;;;;;5020174;28;8763;-64
2022/05/21 12:04:53;;;;;;;;;5.20;5.20;;;;;;;;5020321;28;8898;-64
2022/05/21 12:07:38;;;;;;;;;6.00;6.00;;;;;;;;5003512;28;8743;-64
2022/05/21 12:10:09;;;;;;;;;4.40;4.40;;;;;;;;5020955;28;9455;-64
2022/05/21 12:12:36;;;;;;;;;3.40;3.40;;;;;;;;5001874;28;8769;-64
2022/05/21 12:15:16;;;;;;;;;3.20;3.20;;;;;;;;4983647;28;8769;-65
2022/05/21 12:17:51;;;;;;;;;4.60;3.60;;;;;;;;5011159;28;8779;-64
2022/05/21 12:20:38;;;;;;;;;4.40;3.40;;;;;;;;5020093;28;8795;-63
2022/05/21 12:23:05;;;;;;;;;6.40;5.00;;;;;;;;5020568;28;8763;-65
2022/05/21 12:25:46;;;;;;;;;2.00;2.00;;;;;;;;5021184;28;8747;-64
2022/05/21 12:28:12;;;;;;;;;0.00;0.00;;;;;;;;5040879;28;8838;-64
2022/05/21 12:30:39;;;;;;;;;2.00;0.20;;;;;;;;5022128;28;8784;-64
2022/05/21 12:33:08;;;;;;;;;1.00;1.00;;;;;;;;5040180;28;8772;-64
2022/05/21 12:35:38;;;;;;;;;0.80;0.80;;;;;;;;5039647;28;8780;-64
2022/05/21 12:38:23;;;;;;;;;1.00;1.00;;;;;;;;5039691;28;8792;-64
2022/05/21 12:41:04;;;;;;;;;1.00;1.00;;;;;;;;5035826;28;8836;-64
2022/05/21 12:43:51;;;;;;;;;1.80;0.80;;;;;;;;5018722;28;9518;-64
2022/05/21 12:46:21;;;;;;;;;4.00;2.40;;;;;;;;5020799;28;8759;-63
2022/05/21 12:48:49;;;;;;;;;1.60;1.60;;;;;;;;5019980;28;8766;-64
2022/05/21 12:51:24;;;;;;;;;4.00;3.00;;;;;;;;5018511;28;8771;-64
2022/05/21 12:53:51;;;;;;;;;1.80;1.80;;;;;;;;5018570;28;8778;-64
2022/05/21 12:56:21;;;;;;;;;2.00;2.00;;;;;;;;5027493;28;8764;-63
2022/05/21 12:58:47;;;;;;;;;2.60;2.60;;;;;;;;5039649;28;8786;-65
2022/05/21 13:01:34;;;;;;;;;4.60;4.60;;;;;;;;5038971;28;8863;-65
2022/05/21 13:04:04;;;;;;;;;4.00;4.00;;;;;;;;5039806;28;8790;-64
2022/05/21 13:06:31;;;;;;;;;6.80;6.80;;;;;;;;5037827;28;8814;-64
2022/05/21 13:08:59;;;;;;;;;7.60;7.60;;;;;;;;5039143;28;8768;-64
2022/05/21 13:11:36;;;;;;;;;7.00;7.00;;;;;;;;5029803;28;8783;-64
2022/05/21 13:14:10;;;;;;;;;5.20;5.20;;;;;;;;5019368;28;9272;-64
2022/05/21 13:16:58;;;;;;;;;5.60;5.60;;;;;;;;5019011;28;8783;-64
2022/05/21 13:19:28;;;;;;;;;6.00;6.00;;;;;;;;5019444;28;8755;-63
2022/05/21 13:22:13;;;;;;;;;6.00;6.00;;;;;;;;5019655;28;8740;-65
2022/05/21 13:24:46;;;;;;;;;5.20;4.80;;;;;;;;5019232;28;8759;-65
2022/05/21 13:27:12;;;;;;;;;4.40;4.40;;;;;;;;5033513;28;8776;-64
2022/05/21 13:29:39;;;;;;;;;3.00;3.00;;;;;;;;5038754;28;8918;-64
2022/05/21 13:32:23;;;;;;;;;3.40;3.40;;;;;;;;5037629;28;8784;-65
2022/05/21 13:34:49;;;;;;;;;3.00;3.00;;;;;;;;5039219;28;8828;-65
2022/05/21 13:37:16;;;;;;;;;2.20;2.00;;;;;;;;5039195;28;8914;-65
2022/05/21 13:39:43;;;;;;;;;3.80;2.00;;;;;;;;5037599;28;8748;-64
2022/05/21 13:42:13;;;;;;;;;1.40;1.40;;;;;;;;5023589;28;9007;-64
2022/05/21 13:44:40;;;;;;;;;4.00;4.00;;;;;;;;5018519;28;8751;-64
2022/05/21 13:47:10;;;;;;;;;3.40;3.40;;;;;;;;5017446;28;9455;-64
2022/05/21 13:49:40;;;;;;;;;3.40;3.00;;;;;;;;5018367;28;9425;-64
2022/05/21 13:52:07;;;;;;;;;2.80;2.80;;;;;;;;5019098;28;8755;-65
2022/05/21 13:54:34;;;;;;;;;2.80;2.80;;;;;;;;5017166;28;8747;-64
2022/05/21 13:57:04;;;;;;;;;2.00;2.00;;;;;;;;5032416;28;8862;-64
2022/05/21 13:59:31;;;;;;;;;3.60;2.00;;;;;;;;5038043;28;8853;-64
2022/05/21 14:01:59;;;;;;;;;3.60;2.00;;;;;;;;5037015;28;8799;-64
2022/05/21 14:04:32;;;;;;;;;3.00;1.80;;;;;;;;5038050;28;8732;-63
2022/05/21 14:06:59;;;;;;;;;1.00;0.20;;;;;;;;5038651;28;8795;-65
2022/05/21 14:09:26;;;;;;;;;2.00;2.00;;;;;;;;5036329;28;8744;-64
2022/05/21 14:11:54;;;;;;;;;2.00;2.00;;;;;;;;5025203;28;8787;-64
2022/05/21 14:14:22;;;;;;;;;4.00;2.20;;;;;;;;5018025;28;8781;-64
2022/05/21 14:16:49;;;;;;;;;3.00;3.00;;;;;;;;5016960;28;8770;-65
2022/05/21 14:19:19;;;;;;;;;2.60;2.60;;;;;;;;5018527;28;8790;-64
2022/05/21 14:22:18;;;;;;;;;2.20;2.20;;;;;;;;5018130;28;8824;-64
2022/05/21 14:24:48;;;;;;;;;4.20;2.80;;;;;;;;4995884;28;8755;-64
2022/05/21 14:27:18;;;;;;;;;5.60;3.00;;;;;;;;5034052;28;8806;-64
2022/05/21 14:29:57;;;;;;;;;4.00;4.00;;;;;;;;5037963;28;8752;-64
2022/05/21 14:32:28;;;;;;;;;1.00;1.00;;;;;;;;5037686;28;8764;-63
2022/05/21 14:35:12;;;;;;;;;8.80;4.80;;;;;;;;5038202;28;8807;-64
2022/05/21 14:37:38;;;;;;;;;4.40;4.00;;;;;;;;5037986;28;8879;-64
2022/05/21 14:40:06;;;;;;;;;4.20;4.20;;;;;;;;5038113;28;8764;-65
2022/05/21 14:42:33;;;;;;;;;5.00;5.00;;;;;;;;5019276;28;8787;-64
2022/05/21 14:45:00;;;;;;;;;7.00;7.00;;;;;;;;5017822;28;9491;-64
2022/05/21 14:52:58;;;;;;;;;8.00;6.40;;;;;;;;5006664;28;8885;-64
2022/05/21 14:55:25;;;;;;;;;8.20;6.00;;;;;;;;5018319;28;8755;-64
2022/05/21 14:57:51;;;;;;;;;7.40;5.00;;;;;;;;5059002;28;8917;-65
2022/05/21 15:00:19;;;;;;;;;6.80;5.80;;;;;;;;5036921;28;8768;-62
2022/05/21 15:02:45;;;;;;;;;9.60;6.60;;;;;;;;5037092;28;8761;-64
2022/05/21 15:05:12;;;;;;;;;7.00;7.00;;;;;;;;5037120;28;8776;-64
2022/05/21 15:07:46;;;;;;;;;8.40;7.20;;;;;;;;5036515;28;8753;-65
2022/05/21 15:10:17;;;;;;;;;7.60;7.60;;;;;;;;5037574;28;8830;-64
2022/05/21 15:12:43;;;;;;;;;8.00;6.00;;;;;;;;5017503;28;8763;-65
2022/05/21 15:15:11;;;;;;;;;7.60;7.60;;;;;;;;5017103;28;8802;-65
2022/05/21 15:17:38;;;;;;;;;8.60;7.60;;;;;;;;5016774;28;8822;-64
2022/05/21 15:20:05;;;;;;;;;6.80;6.80;;;;;;;;5017444;28;8759;-65
2022/05/21 15:22:33;;;;;;;;;6.80;6.40;;;;;;;;5016757;28;8793;-64
2022/05/21 15:25:00;;;;;;;;;7.60;7.20;;;;;;;;5015883;28;8759;-65
2022/05/21 15:27:27;;;;;;;;;10.20;7.60;;;;;;;;5034304;28;8775;-64
2022/05/21 15:29:53;;;;;;;;;8.80;6.00;;;;;;;;5035556;28;8779;-65
2022/05/21 15:32:20;;;;;;;;;7.00;6.80;;;;;;;;5035294;28;8887;-64
2022/05/21 15:34:47;;;;;;;;;8.60;7.00;;;;;;;;5036874;28;8748;-65
2022/05/21 15:37:13;;;;;;;;;9.80;8.80;;;;;;;;5037171;28;8894;-65
2022/05/21 15:39:40;;;;;;;;;7.00;7.00;;;;;;;;5036457;28;8783;-65
2022/05/21 15:42:07;;;;;;;;;10.00;10.00;;;;;;;;5022272;28;8839;-65
2022/05/21 15:44:33;;;;;;;;;11.60;8.60;;;;;;;;5015212;28;8806;-64
2022/05/21 15:47:01;;;;;;;;;12.20;10.60;;;;;;;;5017087;28;8778;-64
2022/05/21 15:49:28;;;;;;;;;14.40;12.20;;;;;;;;5016496;28;8747;-64